Time;durP1;ratioP1;P1;durP2;ratioP2;P2;SDS_P1;SDS_P2;PMS_P1;PMS_P2;Temp;Humidity;BMP_temperature;BMP_pressure;BME280_temperature;BME280_humidity;BME280_pressure;Samples;Min_cycle;Max_cycle;Signal;HPM_P1;HPM_P2
2022/10/21 00:01:57;;;;;;;11.52;6.70;;;22.80;43.10;;;;;;4984370;28;20051;-61
2022/10/21 00:04:24;;;;;;;7.65;6.53;;;22.80;43.00;;;;;;4968710;28;20053;-61
2022/10/21 00:06:51;;;;;;;8.00;5.97;;;22.80;43.00;;;;;;4968841;28;20051;-61
2022/10/21 00:09:19;;;;;;;8.48;5.82;;;22.80;43.00;;;;;;4968500;28;20053;-61
2022/10/21 00:11:46;;;;;;;9.23;6.78;;;22.80;42.90;;;;;;4968931;28;20055;-61
2022/10/21 00:14:13;;;;;;;9.02;6.15;;;22.80;42.90;;;;;;4964220;28;20439;-61
2022/10/21 00:16:40;;;;;;;9.40;6.15;;;22.80;42.90;;;;;;4968412;28;20058;-61
2022/10/21 00:19:07;;;;;;;9.63;6.65;;;22.80;43.00;;;;;;4968995;28;20054;-61
2022/10/21 00:21:35;;;;;;;7.90;6.10;;;22.80;43.00;;;;;;4969271;28;20408;-61
2022/10/21 00:24:03;;;;;;;8.70;6.18;;;22.70;43.00;;;;;;4968063;28;20050;-61
2022/10/21 00:26:29;;;;;;;7.55;5.95;;;22.80;43.00;;;;;;4968208;28;20057;-61
2022/10/21 00:29:03;;;;;;;7.70;5.93;;;22.80;43.00;;;;;;4968459;28;20047;-61
2022/10/21 00:31:30;;;;;;;8.13;6.15;;;22.80;43.00;;;;;;4968367;28;20058;-61
2022/10/21 00:33:57;;;;;;;8.57;6.32;;;22.70;43.00;;;;;;4969039;28;20062;-61
2022/10/21 00:36:24;;;;;;;8.02;5.45;;;22.70;42.90;;;;;;4968954;28;20146;-61
2022/10/21 00:38:51;;;;;;;7.45;5.78;;;22.70;42.90;;;;;;4968933;28;20047;-61
2022/10/21 00:41:19;;;;;;;7.60;5.47;;;22.80;42.90;;;;;;4968631;28;20062;-61
2022/10/21 00:44:00;;;;;;;8.98;6.00;;;22.80;42.90;;;;;;4969340;28;20452;-61
2022/10/21 00:46:40;;;;;;;8.93;6.05;;;22.70;42.90;;;;;;4964432;28;20047;-61
2022/10/21 00:49:18;;;;;;;6.67;5.40;;;22.80;42.90;;;;;;4968783;28;20074;-61
2022/10/21 00:51:48;;;;;;;7.68;5.50;;;22.70;42.90;;;;;;4967955;28;20776;-61
2022/10/21 00:54:16;;;;;;;;;;;22.70;42.90;;;;;;4969042;28;20504;-61
2022/10/21 00:56:45;;;;;;;8.05;6.07;;;22.70;42.90;;;;;;4969563;28;19922;-61
2022/10/21 00:59:13;;;;;;;8.18;5.75;;;22.70;43.00;;;;;;4968065;28;20043;-61
2022/10/21 01:01:40;;;;;;;7.40;5.72;;;22.70;42.90;;;;;;4968658;28;20050;-61
2022/10/21 01:04:08;;;;;;;7.57;5.50;;;22.70;42.90;;;;;;4968301;28;20051;-61
2022/10/21 01:06:35;;;;;;;10.45;7.05;;;22.70;42.90;;;;;;4968589;28;20074;-61
2022/10/21 01:09:04;;;;;;;7.75;5.20;;;22.70;42.90;;;;;;4968582;28;20314;-61
2022/10/21 01:11:40;;;;;;;9.20;5.93;;;22.70;42.90;;;;;;4968584;28;20538;-61
2022/10/21 01:14:34;;;;;;;7.82;5.78;;;22.70;42.80;;;;;;4968326;28;20054;-61
2022/10/21 01:17:18;;;;;;;7.15;5.32;;;22.70;42.80;;;;;;4968731;28;20059;-61
2022/10/21 01:20:34;;;;;;;7.95;5.85;;;22.70;42.80;;;;;;4965507;28;20057;-61
2022/10/21 01:23:26;;;;;;;6.68;5.05;;;22.80;42.90;;;;;;4967584;28;20058;-61
2022/10/21 01:26:24;;;;;;;8.07;5.20;;;22.70;42.80;;;;;;4969251;28;20066;-61
2022/10/21 01:29:26;;;;;;;6.82;5.25;;;22.70;42.80;;;;;;4971490;28;20055;-61
2022/10/21 01:32:32;;;;;;;6.47;4.82;;;22.70;42.80;;;;;;4971741;28;20051;-61
2022/10/21 01:35:23;;;;;;;6.13;4.75;;;22.70;42.80;;;;;;4971604;28;20058;-61
2022/10/21 01:37:53;;;;;;;;;;;22.70;42.70;;;;;;4972874;28;20412;-61
2022/10/21 01:40:27;;;;;;;5.53;4.47;;;22.70;42.70;;;;;;4971173;28;19922;-61
2022/10/21 01:43:02;;;;;;;7.63;5.15;;;22.70;42.80;;;;;;4971936;28;20050;-61
2022/10/21 01:45:41;;;;;;;8.30;5.25;;;22.70;42.80;;;;;;4972135;28;20063;-61
2022/10/21 01:48:13;;;;;;;8.68;5.32;;;22.70;42.80;;;;;;4971836;28;20077;-61
2022/10/21 01:50:47;;;;;;;4.75;4.25;;;22.70;42.80;;;;;;4967157;28;20054;-61
2022/10/21 01:53:15;;;;;;;8.80;4.75;;;22.60;43.30;;;;;;4971533;28;20051;-61
2022/10/21 01:55:44;;;;;;;6.72;5.38;;;22.70;42.80;;;;;;4971214;28;20069;-61
2022/10/21 01:58:18;;;;;;;6.78;5.03;;;22.60;42.80;;;;;;4970706;28;20476;-61
2022/10/21 02:00:46;;;;;;;6.63;4.82;;;22.70;42.80;;;;;;4971881;28;20053;-61
2022/10/21 02:03:19;;;;;;;7.03;5.32;;;22.70;42.70;;;;;;4971638;28;20039;-61
2022/10/21 02:05:46;;;;;;;8.57;4.93;;;22.70;42.70;;;;;;4971601;28;20381;-61
2022/10/21 02:08:14;;;;;;;6.95;5.30;;;22.70;42.70;;;;;;4971756;28;20054;-61
2022/10/21 02:10:44;;;;;;;6.05;4.45;;;22.70;42.70;;;;;;4970617;28;20551;-61
2022/10/21 02:13:16;;;;;;;8.52;5.55;;;22.70;42.70;;;;;;4954613;28;20397;-61
2022/10/21 02:15:43;;;;;;;6.10;4.43;;;22.70;42.80;;;;;;4971630;28;20050;-61
2022/10/21 02:18:21;;;;;;;6.43;4.70;;;22.70;42.70;;;;;;4971245;28;20053;-60
2022/10/21 02:20:53;;;;;;;5.82;4.63;;;22.70;42.80;;;;;;4971667;28;20051;-61
2022/10/21 02:23:28;;;;;;;7.20;4.63;;;22.70;42.80;;;;;;4966872;28;20045;-61
2022/10/21 02:25:55;;;;;;;6.00;4.53;;;22.70;42.80;;;;;;4970976;28;20047;-61
2022/10/21 02:28:22;;;;;;;6.35;4.85;;;22.60;42.70;;;;;;4970930;28;20423;-61
2022/10/21 02:31:29;;;;;;;6.07;4.45;;;22.70;42.80;;;;;;4971415;28;20419;-61
2022/10/21 02:34:29;;;;;;;6.30;4.35;;;22.60;42.70;;;;;;4970318;28;20054;-61
2022/10/21 02:37:16;;;;;;;7.05;4.40;;;22.70;42.70;;;;;;4969854;28;20055;-61
2022/10/21 02:39:51;;;;;;;8.43;4.45;;;22.60;42.60;;;;;;4985553;28;20050;-61
2022/10/21 02:42:25;;;;;;;4.68;4.07;;;22.60;42.60;;;;;;4968929;28;20051;-61
2022/10/21 02:44:53;;;;;;;5.90;4.38;;;22.60;42.60;;;;;;4970643;28;20050;-61
2022/10/21 02:47:22;;;;;;;5.93;4.63;;;22.60;42.60;;;;;;4971060;28;20078;-61
2022/10/21 02:49:49;;;;;;;6.38;4.40;;;22.60;42.60;;;;;;4953352;28;20054;-61
2022/10/21 02:52:16;;;;;;;5.28;4.28;;;22.70;42.60;;;;;;4970795;28;20054;-61
2022/10/21 02:54:43;;;;;;;5.65;4.57;;;22.60;42.60;;;;;;4969164;28;20400;-61
2022/10/21 02:57:10;;;;;;;5.47;4.03;;;22.60;42.60;;;;;;4968497;28;20076;-61
2022/10/21 02:59:37;;;;;;;5.13;3.95;;;22.60;42.60;;;;;;4969893;28;20054;-61
2022/10/21 03:02:04;;;;;;;6.40;4.10;;;22.60;42.50;;;;;;4953150;28;20054;-61
2022/10/21 03:04:31;;;;;;;4.82;4.13;;;22.60;42.40;;;;;;4969214;28;20050;-61
2022/10/21 03:06:58;;;;;;;6.13;4.25;;;22.60;42.40;;;;;;4969430;28;20050;-61
2022/10/21 03:09:25;;;;;;;6.50;4.30;;;22.60;42.50;;;;;;4970556;28;20053;-61
2022/10/21 03:11:52;;;;;;;8.35;4.15;;;22.60;42.50;;;;;;4968061;28;20055;-61
2022/10/21 03:14:19;;;;;;;6.10;4.47;;;22.60;42.50;;;;;;4970475;28;20483;-61
2022/10/21 03:16:46;;;;;;;7.93;4.53;;;22.60;42.60;;;;;;4970346;28;20054;-61
2022/10/21 03:19:13;;;;;;;5.88;4.15;;;22.60;42.60;;;;;;4970462;28;20046;-61
2022/10/21 03:21:40;;;;;;;5.75;4.10;;;22.60;42.60;;;;;;4970553;28;20118;-61
2022/10/21 03:24:07;;;;;;;6.00;4.32;;;22.60;42.60;;;;;;4968971;28;20053;-61
2022/10/21 03:26:53;;;;;;;6.72;4.53;;;22.60;42.50;;;;;;4964945;28;20624;-61
2022/10/21 03:29:20;;;;;;;6.63;3.80;;;22.60;42.50;;;;;;4969369;28;20058;-61
2022/10/21 03:31:47;;;;;;;5.22;3.70;;;22.60;42.50;;;;;;4969715;28;20058;-61
2022/10/21 03:34:14;;;;;;;5.32;4.05;;;22.60;42.50;;;;;;4970003;28;20506;-61
2022/10/21 03:36:41;;;;;;;6.15;4.55;;;22.60;42.40;;;;;;4968754;28;20061;-61
2022/10/21 03:39:10;;;;;;;6.65;4.25;;;22.60;42.50;;;;;;4970673;28;20109;-61
2022/10/21 03:41:37;;;;;;;5.95;4.22;;;22.60;42.40;;;;;;4969116;28;20065;-61
2022/10/21 03:44:04;;;;;;;5.43;3.83;;;22.60;42.50;;;;;;4969986;28;20295;-61
2022/10/21 03:46:31;;;;;;;5.68;3.88;;;22.60;42.50;;;;;;4969075;28;20243;-61
2022/10/21 03:48:58;;;;;;;5.57;4.40;;;22.60;42.50;;;;;;4969373;28;20126;-61
2022/10/21 03:51:31;;;;;;;5.75;3.90;;;22.60;42.50;;;;;;4969884;28;20128;-61
2022/10/21 03:53:58;;;;;;;6.80;4.47;;;22.60;42.50;;;;;;4969746;28;20046;-61
2022/10/21 03:56:25;;;;;;;4.80;3.78;;;22.60;42.50;;;;;;4969915;28;20517;-61
2022/10/21 03:58:52;;;;;;;5.53;3.95;;;22.60;42.50;;;;;;4965836;28;20078;-61
2022/10/21 04:01:24;;;;;;;5.03;3.38;;;22.60;42.50;;;;;;4969469;28;20062;-61
2022/10/21 04:03:52;;;;;;;5.70;3.63;;;22.60;42.50;;;;;;4969124;28;20162;-61
2022/10/21 04:06:19;;;;;;;6.22;3.38;;;22.60;42.40;;;;;;4968746;28;20546;-61
2022/10/21 04:08:46;;;;;;;5.95;4.30;;;22.60;42.40;;;;;;4969989;28;20058;-61
2022/10/21 04:11:14;;;;;;;4.68;3.70;;;22.60;42.40;;;;;;4967746;28;20042;-61
2022/10/21 04:13:41;;;;;;;4.60;3.58;;;22.60;42.40;;;;;;4968700;28;20050;-61
2022/10/21 04:16:13;;;;;;;4.65;3.53;;;22.60;42.40;;;;;;4968845;28;20055;-61
2022/10/21 04:18:40;;;;;;;6.85;4.45;;;22.60;42.40;;;;;;4969552;28;20072;-61
2022/10/21 04:21:10;;;;;;;7.03;4.15;;;22.60;42.30;;;;;;4969760;28;20058;-61
2022/10/21 04:23:37;;;;;;;5.60;3.67;;;22.60;42.30;;;;;;4968127;28;20178;-61
2022/10/21 04:26:05;;;;;;;5.05;3.85;;;22.60;42.30;;;;;;4969140;28;20059;-61
2022/10/21 04:28:33;;;;;;;7.35;3.85;;;22.60;42.30;;;;;;4967451;28;20078;-61
2022/10/21 04:31:00;;;;;;;4.80;3.70;;;22.60;42.20;;;;;;4964433;28;20514;-61
2022/10/21 04:33:27;;;;;;;6.40;4.50;;;22.60;42.20;;;;;;4969382;28;20055;-61
2022/10/21 04:35:54;;;;;;;6.75;4.25;;;22.60;42.30;;;;;;4968685;28;20054;-61
2022/10/21 04:38:22;;;;;;;7.53;4.10;;;22.60;42.20;;;;;;4969536;28;20434;-61
2022/10/21 04:41:01;;;;;;;5.05;3.83;;;22.60;42.10;;;;;;4969714;28;20047;-61
2022/10/21 04:43:29;;;;;;;7.25;4.18;;;22.60;42.10;;;;;;4968828;28;20059;-61
2022/10/21 04:45:56;;;;;;;5.65;3.90;;;22.50;42.00;;;;;;4968244;28;20066;-61
2022/10/21 04:48:23;;;;;;;5.82;3.80;;;22.60;42.10;;;;;;4968538;28;20054;-61
2022/10/21 04:50:52;;;;;;;7.40;4.20;;;22.50;42.00;;;;;;4968242;28;20514;-61
2022/10/21 04:53:20;;;;;;;5.47;3.53;;;22.50;42.00;;;;;;4968055;28;20051;-61
2022/10/21 04:55:51;;;;;;;6.22;3.88;;;22.50;42.00;;;;;;4968823;28;20050;-61
2022/10/21 04:58:20;;;;;;;6.75;3.97;;;22.50;42.10;;;;;;4967850;28;20447;-61
2022/10/21 05:00:49;;;;;;;5.57;4.22;;;22.50;42.10;;;;;;4969310;28;20294;-61
2022/10/21 05:03:18;;;;;;;6.35;3.95;;;22.50;42.10;;;;;;4970388;28;20047;-61
2022/10/21 05:05:49;;;;;;;5.18;3.70;;;22.50;42.00;;;;;;4970208;28;20058;-61
2022/10/21 05:08:16;;;;;;;6.65;3.90;;;22.50;42.00;;;;;;4972377;28;20506;-61
2022/10/21 05:10:43;;;;;;;9.05;4.00;;;22.50;42.00;;;;;;4963606;28;20062;-60
2022/10/21 05:13:11;;;;;;;7.13;4.10;;;22.50;42.00;;;;;;4960859;28;20047;-60
2022/10/21 05:15:38;;;;;;;5.93;4.18;;;22.50;42.00;;;;;;4966970;28;20731;-60
2022/10/21 05:18:05;;;;;;;8.20;4.43;;;22.40;41.90;;;;;;4965243;28;20049;-61
2022/10/21 05:20:32;;;;;;;6.65;3.38;;;22.40;41.90;;;;;;4968123;28;20058;-61
2022/10/21 05:22:59;;;;;;;10.35;4.38;;;22.40;41.90;;;;;;4967684;28;20058;-60
2022/10/21 05:25:26;;;;;;;7.28;5.10;;;22.40;41.90;;;;;;4962095;28;20398;-59
2022/10/21 05:28:00;;;;;;;5.93;4.20;;;22.40;41.90;;;;;;4964907;28;20380;-60
2022/10/21 05:30:27;;;;;;;6.03;3.72;;;22.40;42.10;;;;;;4968074;28;20046;-60
2022/10/21 05:32:54;;;;;;;8.60;4.38;;;22.40;42.20;;;;;;4967967;28;20549;-60
2022/10/21 05:35:21;;;;;;;8.85;4.85;;;22.40;42.20;;;;;;4959973;28;20049;-60
2022/10/21 05:37:48;;;;;;;8.45;4.13;;;22.40;42.30;;;;;;4959686;28;20054;-61
2022/10/21 05:40:15;;;;;;;10.02;5.15;;;22.50;42.50;;;;;;4967097;28;20407;-61
2022/10/21 05:42:42;;;;;;;9.30;4.65;;;22.50;42.30;;;;;;4961683;28;20491;-60
2022/10/21 05:45:10;;;;;;;10.95;4.78;;;22.50;42.20;;;;;;4966701;28;20146;-60
2022/10/21 05:47:40;;;;;;;9.45;4.70;;;22.50;42.10;;;;;;4965261;28;20514;-60
2022/10/21 05:50:09;;;;;;;8.23;4.72;;;22.50;42.00;;;;;;4973300;28;20488;-60
2022/10/21 05:52:36;;;;;;;8.77;4.95;;;22.50;41.90;;;;;;4974813;28;20051;-60
2022/10/21 05:55:05;;;;;;;8.43;4.93;;;22.50;41.90;;;;;;4958634;28;20360;-60
2022/10/21 05:57:33;;;;;;;9.15;5.05;;;22.50;41.90;;;;;;4962108;28;20050;-60
2022/10/21 06:00:01;;;;;;;8.95;4.75;;;22.50;41.80;;;;;;4957843;28;20050;-60
2022/10/21 06:02:28;;;;;;;9.82;5.20;;;22.50;42.10;;;;;;4958059;28;20053;-60
2022/10/21 06:04:55;;;;;;;11.88;5.43;;;22.50;42.50;;;;;;4964015;28;20492;-61
2022/10/21 06:07:22;;;;;;;10.15;5.72;;;22.60;42.80;;;;;;4970596;28;20050;-60
2022/10/21 06:09:49;;;;;;;10.80;5.95;;;22.60;42.90;;;;;;4961866;28;20502;-60
2022/10/21 06:12:16;;;;;;;11.05;5.32;;;22.60;43.00;;;;;;4963324;28;20055;-62
2022/10/21 06:14:43;;;;;;;8.40;5.45;;;22.60;43.20;;;;;;4962433;28;20435;-61
2022/10/21 06:17:10;;;;;;;9.55;5.68;;;22.70;43.20;;;;;;4960933;28;20121;-60
2022/10/21 06:19:38;;;;;;;11.25;6.13;;;22.70;43.30;;;;;;4956100;28;20146;-60
2022/10/21 06:22:05;;;;;;;17.75;6.82;;;22.70;43.50;;;;;;4959347;28;20050;-59
2022/10/21 06:24:32;;;;;;;11.55;5.90;;;22.80;43.60;;;;;;4965896;28;20043;-61
2022/10/21 06:26:59;;;;;;;12.75;5.65;;;22.80;43.50;;;;;;4967880;28;20050;-59
2022/10/21 06:29:26;;;;;;;14.20;6.68;;;22.90;43.30;;;;;;4960146;28;20504;-60
2022/10/21 06:31:55;;;;;;;11.55;5.65;;;22.90;43.30;;;;;;4964397;28;20051;-60
2022/10/21 06:34:22;;;;;;;10.10;5.40;;;22.90;43.30;;;;;;4963224;28;20042;-58
2022/10/21 06:36:49;;;;;;;18.70;6.32;;;23.00;43.30;;;;;;4956798;28;20062;-59
2022/10/21 06:39:16;;;;;;;14.32;6.22;;;23.00;43.20;;;;;;4957848;28;21618;-59
2022/10/21 06:41:43;;;;;;;13.02;7.03;;;23.10;43.20;;;;;;4954111;28;20047;-59
2022/10/21 06:44:11;;;;;;;15.68;6.05;;;23.10;43.10;;;;;;4957325;28;20514;-60
2022/10/21 06:46:38;;;;;;;10.40;5.63;;;23.10;43.00;;;;;;4960650;28;20137;-59
2022/10/21 06:49:05;;;;;;;11.52;6.63;;;23.10;43.00;;;;;;4958829;28;20046;-59
2022/10/21 06:51:32;;;;;;;12.35;5.97;;;23.20;43.00;;;;;;4962914;28;20059;-59
2022/10/21 06:53:59;;;;;;;14.45;6.10;;;23.20;42.90;;;;;;4965616;28;20418;-60
2022/10/21 06:56:27;;;;;;;13.07;6.28;;;23.20;42.90;;;;;;4958203;28;20111;-60
2022/10/21 06:58:57;;;;;;;12.95;5.68;;;23.30;42.90;;;;;;4956562;28;20054;-59
2022/10/21 07:01:27;;;;;;;12.77;6.47;;;23.30;42.80;;;;;;4958667;28;20517;-59
2022/10/21 07:04:14;;;;;;;10.35;6.07;;;23.40;42.70;;;;;;4959107;28;20113;-61
2022/10/21 07:06:41;;;;;;;10.18;6.53;;;23.40;42.40;;;;;;4962234;28;20047;-60
2022/10/21 07:09:09;;;;;;;10.60;5.53;;;23.40;42.30;;;;;;4955708;28;20530;-59
2022/10/21 07:11:36;;;;;;;12.52;6.13;;;23.40;42.00;;;;;;4955981;28;20050;-60
2022/10/21 07:14:03;;;;;;;10.85;5.88;;;23.40;42.00;;;;;;4963971;28;20047;-59
2022/10/21 07:16:33;;;;;;;9.80;5.53;;;23.40;41.90;;;;;;4960640;28;20138;-58
2022/10/21 07:19:02;;;;;;;13.07;6.10;;;23.50;41.70;;;;;;4962141;28;20499;-60
2022/10/21 07:21:30;;;;;;;11.32;6.22;;;23.50;41.60;;;;;;4976693;28;20054;-60
2022/10/21 07:24:00;;;;;;;11.73;5.53;;;23.50;41.50;;;;;;4961427;28;20083;-59
2022/10/21 07:26:32;;;;;;;9.15;5.88;;;23.50;41.30;;;;;;4960700;28;20059;-59
2022/10/21 07:29:00;;;;;;;9.32;5.10;;;23.60;41.30;;;;;;4956906;28;20775;-59
2022/10/21 07:31:30;;;;;;;9.05;5.30;;;23.60;41.30;;;;;;4957214;28;20074;-60
2022/10/21 07:33:59;;;;;;;9.00;4.97;;;23.60;41.20;;;;;;4963744;28;20485;-60
2022/10/21 07:36:29;;;;;;;9.32;5.35;;;23.60;41.50;;;;;;4961304;28;20058;-61
2022/10/21 07:38:59;;;;;;;10.25;5.55;;;23.60;41.50;;;;;;4963478;28;20047;-60
2022/10/21 07:41:30;;;;;;;12.10;6.03;;;23.70;41.50;;;;;;4964006;28;20046;-59
2022/10/21 07:43:58;;;;;;;10.32;5.50;;;23.70;41.50;;;;;;4957645;28;20397;-59
2022/10/21 07:46:25;;;;;;;12.10;5.88;;;23.70;41.40;;;;;;4960207;28;20058;-58
2022/10/21 07:48:53;;;;;;;8.70;4.72;;;23.80;41.40;;;;;;4961688;28;20074;-60
2022/10/21 07:51:25;;;;;;;8.30;5.05;;;23.80;41.40;;;;;;4958609;28;20053;-59
2022/10/21 07:53:58;;;;;;;12.27;5.72;;;23.90;41.30;;;;;;4959508;28;20051;-60
2022/10/21 07:56:41;;;;;;;13.75;5.20;;;24.00;41.20;;;;;;4960334;28;20066;-59
2022/10/21 07:59:09;;;;;;;8.10;5.20;;;24.00;41.10;;;;;;4968039;28;20058;-61
2022/10/21 08:01:42;;;;;;;8.93;4.80;;;24.10;41.20;;;;;;4958273;28;20459;-61
2022/10/21 08:04:13;;;;;;;9.52;5.03;;;24.10;41.10;;;;;;4955960;28;20134;-59
2022/10/21 08:06:41;;;;;;;7.13;4.47;;;24.10;41.10;;;;;;4964223;28;20054;-61
2022/10/21 08:09:08;;;;;;;9.68;5.03;;;24.20;41.00;;;;;;4964294;28;20309;-60
2022/10/21 08:11:35;;;;;;;11.05;4.57;;;24.20;41.00;;;;;;4958034;28;21282;-60
2022/10/21 08:14:06;;;;;;;7.18;4.97;;;24.30;40.90;;;;;;4959360;28;20058;-60
2022/10/21 08:16:34;;;;;;;11.57;5.13;;;24.30;40.90;;;;;;4955779;28;20236;-60
2022/10/21 08:19:03;;;;;;;9.25;4.80;;;24.40;40.80;;;;;;4962119;28;20616;-60
2022/10/21 08:21:30;;;;;;;16.23;5.32;;;24.40;40.70;;;;;;4955271;28;20514;-58
2022/10/21 08:24:00;;;;;;;9.18;4.85;;;24.50;40.60;;;;;;4961661;28;20062;-57
2022/10/21 08:26:27;;;;;;;8.68;4.40;;;24.50;40.40;;;;;;4959286;28;20050;-60
2022/10/21 08:28:54;;;;;;;7.55;4.32;;;24.50;40.40;;;;;;4957761;28;20055;-59
2022/10/21 08:31:22;;;;;;;9.63;4.88;;;24.60;40.30;;;;;;4964487;28;20069;-58
2022/10/21 08:33:49;;;;;;;8.57;4.35;;;24.60;40.30;;;;;;4961489;28;20097;-59
2022/10/21 08:36:24;;;;;;;7.00;4.50;;;24.70;40.40;;;;;;4965700;28;20050;-59
2022/10/21 08:38:52;;;;;;;7.22;3.92;;;24.70;40.30;;;;;;4962845;28;20073;-59
2022/10/21 08:41:45;;;;;;;7.00;4.07;;;24.70;40.10;;;;;;4962965;28;20058;-59
2022/10/21 08:44:36;;;;;;;9.07;4.03;;;24.70;39.90;;;;;;4963898;28;20055;-59
2022/10/21 08:47:13;;;;;;;10.88;4.40;;;24.80;40.00;;;;;;4968357;28;20058;-58
2022/10/21 08:50:03;;;;;;;8.35;4.22;;;24.80;40.00;;;;;;4960613;28;20046;-59
2022/10/21 08:52:48;;;;;;;10.25;4.55;;;24.90;40.00;;;;;;4962337;28;20150;-60
2022/10/21 08:55:19;;;;;;;6.93;4.20;;;24.90;40.00;;;;;;4960191;28;20491;-58
2022/10/21 08:57:48;;;;;;;9.43;4.40;;;24.90;40.00;;;;;;4963047;28;20415;-59
2022/10/21 09:00:19;;;;;;;7.75;4.20;;;24.90;39.90;;;;;;4966030;28;20526;-59
2022/10/21 09:03:13;;;;;;;8.65;3.72;;;25.00;39.80;;;;;;4966611;28;20051;-59
2022/10/21 09:06:11;;;;;;;9.60;4.50;;;25.00;39.60;;;;;;4963368;28;20058;-59
2022/10/21 09:09:13;;;;;;;6.95;4.00;;;25.00;39.50;;;;;;4964260;28;20046;-59
2022/10/21 09:12:07;;;;;;;7.63;4.22;;;25.10;39.40;;;;;;4963185;28;20059;-59
2022/10/21 09:15:13;;;;;;;8.75;3.83;;;25.10;39.20;;;;;;4964675;28;20058;-59
2022/10/21 09:18:07;;;;;;;6.07;3.97;;;25.10;39.00;;;;;;4966940;28;20074;-58
2022/10/21 09:20:59;;;;;;;8.23;4.30;;;25.10;38.80;;;;;;4958712;28;20050;-59
2022/10/21 09:23:46;;;;;;;5.35;3.40;;;25.10;38.60;;;;;;4961636;28;20117;-59
2022/10/21 09:26:41;;;;;;;6.40;3.90;;;25.10;38.60;;;;;;4958692;28;20054;-59
2022/10/21 09:29:31;;;;;;;5.43;3.60;;;25.10;38.40;;;;;;4968969;28;20047;-58
2022/10/21 09:32:12;;;;;;;4.95;3.60;;;25.10;38.40;;;;;;4968039;28;20510;-59
2022/10/21 09:35:01;;;;;;;7.85;3.95;;;25.20;38.20;;;;;;4969968;28;20051;-59
2022/10/21 09:37:35;;;;;;;8.60;3.53;;;25.10;38.20;;;;;;4967443;28;20134;-60
2022/10/21 09:40:24;;;;;;;10.10;4.18;;;25.20;38.20;;;;;;4967327;28;20193;-59
2022/10/21 09:42:58;;;;;;;6.88;4.28;;;25.20;38.10;;;;;;4969664;28;20047;-58
2022/10/21 09:45:33;;;;;;;6.32;3.40;;;25.20;38.00;;;;;;4978292;28;20053;-60
2022/10/21 09:48:25;;;;;;;5.40;3.95;;;25.20;37.90;;;;;;4968300;28;20049;-59
2022/10/21 09:51:02;;;;;;;4.85;3.30;;;25.30;37.80;;;;;;4969909;28;20050;-61
2022/10/21 09:53:51;;;;;;;6.68;3.25;;;25.30;37.80;;;;;;4963808;28;20074;-59
2022/10/21 09:56:25;;;;;;;5.68;3.60;;;25.40;37.70;;;;;;4963853;28;20047;-60
2022/10/21 09:59:06;;;;;;;4.75;2.78;;;25.40;37.60;;;;;;4962582;28;20408;-59
2022/10/21 10:01:35;;;;;;;5.75;3.92;;;25.40;37.60;;;;;;4962450;28;20061;-59
2022/10/21 10:04:30;;;;;;;6.15;3.72;;;25.40;37.50;;;;;;4963138;28;20073;-60
2022/10/21 10:07:00;;;;;;;3.42;3.13;;;25.40;37.50;;;;;;4961174;28;20496;-59
2022/10/21 10:09:30;;;;;;;6.70;3.53;;;25.50;37.50;;;;;;4966124;28;20051;-60
2022/10/21 10:12:12;;;;;;;3.40;3.10;;;25.40;37.50;;;;;;4962031;28;20476;-60
2022/10/21 10:14:42;;;;;;;4.97;3.42;;;25.50;37.50;;;;;;4965260;28;20090;-60
2022/10/21 10:17:32;;;;;;;4.30;3.30;;;25.50;37.40;;;;;;4960319;28;20496;-60
2022/10/21 10:20:14;;;;;;;7.50;3.67;;;25.50;37.30;;;;;;4962699;28;20079;-60
2022/10/21 10:22:43;;;;;;;3.90;3.28;;;25.50;37.30;;;;;;4964854;28;20047;-60
2022/10/21 10:25:22;;;;;;;5.50;2.83;;;25.40;37.20;;;;;;4960375;28;20046;-60
2022/10/21 10:28:03;;;;;;;5.25;3.45;;;25.50;37.20;;;;;;4966015;28;20054;-59
2022/10/21 10:30:38;;;;;;;7.88;3.35;;;25.50;37.20;;;;;;4963492;28;20055;-60
2022/10/21 10:33:21;;;;;;;9.00;3.00;;;25.50;37.10;;;;;;4957244;28;20429;-59
2022/10/21 10:35:52;;;;;;;5.97;3.08;;;25.50;37.00;;;;;;4961158;28;20523;-59
2022/10/21 10:38:40;;;;;;;5.95;3.35;;;25.50;37.10;;;;;;4956873;28;20059;-60
2022/10/21 10:41:11;;;;;;;5.07;3.75;;;25.50;37.00;;;;;;4962143;28;20495;-60
2022/10/21 10:43:48;;;;;;;3.85;2.72;;;25.60;37.20;;;;;;4959957;28;20050;-60
2022/10/21 10:46:31;;;;;;;4.47;3.33;;;25.60;37.20;;;;;;4961635;28;20495;-60
2022/10/21 10:49:20;;;;;;;6.40;3.55;;;25.60;37.20;;;;;;4962224;28;20043;-60
2022/10/21 10:52:03;;;;;;;4.68;2.83;;;25.50;37.20;;;;;;4966200;28;20053;-60
2022/10/21 10:54:30;;;;;;;6.35;3.10;;;25.60;37.10;;;;;;4955401;28;20058;-60
2022/10/21 10:57:02;;;;;;;6.97;3.40;;;25.60;37.20;;;;;;4954100;28;20505;-60
2022/10/21 10:59:47;;;;;;;5.88;3.10;;;25.60;37.20;;;;;;4958427;28;20503;-59
2022/10/21 11:02:24;;;;;;;6.85;3.30;;;25.60;37.40;;;;;;4957431;28;20051;-59
2022/10/21 11:05:16;;;;;;;5.90;3.88;;;25.60;37.40;;;;;;4954897;28;20042;-59
2022/10/21 11:07:53;;;;;;;4.13;3.15;;;25.60;37.40;;;;;;4959553;28;20069;-59
2022/10/21 11:10:37;;;;;;;4.40;3.10;;;25.60;37.30;;;;;;4972999;28;20156;-60
2022/10/21 11:13:11;;;;;;;3.90;3.50;;;25.60;37.30;;;;;;4957708;28;20130;-60
2022/10/21 11:16:10;;;;;;;3.22;2.85;;;25.50;37.20;;;;;;4956199;28;20051;-60
2022/10/21 11:19:04;;;;;;;5.20;3.78;;;25.50;37.20;;;;;;4959711;28;20141;-60
2022/10/21 11:21:46;;;;;;;6.85;2.90;;;25.50;37.20;;;;;;4961140;28;20081;-60
2022/10/21 11:24:41;;;;;;;4.47;3.10;;;25.50;37.20;;;;;;4963676;28;20054;-60
2022/10/21 11:27:44;;;;;;;4.05;3.13;;;25.50;37.20;;;;;;4956812;28;20066;-61
2022/10/21 11:30:19;;;;;;;5.03;2.95;;;25.50;37.20;;;;;;4956691;28;20059;-61
2022/10/21 11:33:15;;;;;;;6.78;3.40;;;25.50;37.10;;;;;;4964092;28;20062;-59
2022/10/21 11:36:05;;;;;;;3.95;3.17;;;25.50;37.20;;;;;;4961172;28;20047;-61
2022/10/21 11:38:59;;;;;;;3.35;2.95;;;25.50;37.30;;;;;;4958006;28;20043;-59
2022/10/21 11:41:38;;;;;;;3.65;2.60;;;25.60;37.60;;;;;;4963992;28;20431;-61
2022/10/21 11:44:26;;;;;;;5.68;3.85;;;25.60;37.70;;;;;;4965447;28;20411;-59
2022/10/21 11:47:35;;;;;;;3.75;3.08;;;25.60;37.80;;;;;;4959241;28;20043;-59
2022/10/21 11:50:18;;;;;;;4.35;3.20;;;25.70;37.90;;;;;;4962188;28;20077;-60
2022/10/21 11:53:26;;;;;;;4.30;3.10;;;25.70;37.90;;;;;;4980216;28;20062;-60
2022/10/21 11:56:18;;;;;;;5.32;3.35;;;25.70;37.90;;;;;;4962204;28;20076;-59
2022/10/21 11:59:19;;;;;;;6.57;3.28;;;25.70;37.80;;;;;;4971903;28;20407;-59
2022/10/21 12:02:19;;;;;;;7.53;2.97;;;25.70;37.80;;;;;;4954682;28;20070;-60
2022/10/21 12:05:06;;;;;;;;;;;25.80;37.90;;;;;;4966756;28;20082;-61
2022/10/21 12:08:06;;;;;;;4.97;3.20;;;25.80;37.70;;;;;;4966071;28;20374;-61
2022/10/21 12:10:53;;;;;;;5.00;2.72;;;25.70;37.50;;;;;;4963493;28;20433;-60
2022/10/21 12:13:28;;;;;;;3.92;2.97;;;25.70;37.40;;;;;;4967548;28;20077;-61
2022/10/21 12:15:59;;;;;;;3.88;2.97;;;25.70;37.30;;;;;;4968502;28;20495;-61
2022/10/21 12:18:28;;;;;;;4.78;2.97;;;25.70;37.10;;;;;;4962158;28;20066;-60
2022/10/21 12:20:58;;;;;;;6.57;3.40;;;25.80;37.10;;;;;;4968178;28;20799;-60
2022/10/21 12:23:29;;;;;;;4.28;3.15;;;25.70;37.10;;;;;;4976419;28;20058;-60
2022/10/21 12:26:19;;;;;;;5.00;3.35;;;25.70;37.00;;;;;;4973448;28;20594;-60
2022/10/21 12:29:10;;;;;;;3.97;3.60;;;25.70;37.00;;;;;;4975020;28;20055;-60
2022/10/21 12:31:55;;;;;;;6.75;3.03;;;25.70;37.60;;;;;;4968012;28;20047;-60
2022/10/21 12:34:23;;;;;;;4.80;3.45;;;25.70;37.00;;;;;;4971295;28;20435;-60
2022/10/21 12:36:53;;;;;;;5.35;3.25;;;25.70;37.00;;;;;;4963680;28;20043;-60
2022/10/21 12:39:48;;;;;;;5.82;3.35;;;25.70;37.00;;;;;;4966440;28;20051;-60
2022/10/21 12:42:18;;;;;;;3.63;3.13;;;25.70;37.10;;;;;;4960025;28;20454;-60
2022/10/21 12:44:47;;;;;;;5.32;3.15;;;25.70;37.10;;;;;;4966092;28;20046;-60
2022/10/21 12:47:35;;;;;;;6.00;3.27;;;25.60;37.10;;;;;;4964257;28;20041;-60
2022/10/21 12:50:23;;;;;;;4.15;2.95;;;25.60;37.10;;;;;;4949529;28;20281;-60
2022/10/21 12:53:25;;;;;;;7.82;3.67;;;25.60;37.10;;;;;;4964655;28;20047;-60
2022/10/21 12:55:57;;;;;;;4.57;3.60;;;25.60;37.10;;;;;;4967454;28;20046;-60
2022/10/21 12:58:44;;;;;;;5.82;3.63;;;25.60;37.10;;;;;;4966695;28;20055;-60
2022/10/21 13:01:37;;;;;;;3.92;3.53;;;25.50;37.10;;;;;;4966862;28;20047;-59
2022/10/21 13:04:25;;;;;;;4.22;3.42;;;25.50;37.20;;;;;;4948377;28;20448;-60
2022/10/21 13:06:54;;;;;;;8.00;4.07;;;25.50;37.20;;;;;;4962837;28;20455;-60
2022/10/21 13:10:01;;;;;;;10.38;4.22;;;25.50;37.30;;;;;;4965612;28;20967;-60
2022/10/21 13:12:31;;;;;;;6.97;4.30;;;25.40;37.40;;;;;;4961613;28;20301;-61
2022/10/21 13:15:19;;;;;;;4.93;3.70;;;25.40;37.80;;;;;;4949661;28;20047;-60
2022/10/21 13:17:51;;;;;;;3.95;3.10;;;25.40;38.10;;;;;;4967922;28;20050;-60
2022/10/21 13:20:43;;;;;;;4.70;3.88;;;25.40;38.40;;;;;;4964782;28;20050;-60
2022/10/21 13:23:31;;;;;;;6.40;3.30;;;25.40;38.50;;;;;;4968767;28;20042;-60
2022/10/21 13:26:12;;;;;;;4.72;3.85;;;25.30;38.40;;;;;;4952360;28;20467;-60